createdAt,value
2023-01-30T00:02:00.308Z,4.60
2023-01-30T00:04:28.752Z,4.60
2023-01-30T00:06:57.006Z,4.60
2023-01-30T00:09:25.058Z,4.60
2023-01-30T00:11:53.319Z,4.60
2023-01-30T00:14:21.424Z,4.60
2023-01-30T00:16:49.545Z,4.60
2023-01-30T00:19:17.487Z,4.60
2023-01-30T00:21:45.867Z,4.60
2023-01-30T00:24:14.055Z,4.60
2023-01-30T00:26:42.316Z,4.60
2023-01-30T00:29:10.385Z,4.60
2023-01-30T00:31:38.374Z,4.60
2023-01-30T00:34:06.267Z,4.50
2023-01-30T00:36:34.327Z,4.50
2023-01-30T00:39:02.282Z,4.50
2023-01-30T00:41:50.191Z,4.50
2023-01-30T00:44:36.758Z,4.50
2023-01-30T00:47:09.288Z,4.50
2023-01-30T00:49:38.288Z,4.50
2023-01-30T00:52:06.207Z,4.50
2023-01-30T00:54:34.484Z,4.50
2023-01-30T00:57:02.346Z,4.50
2023-01-30T00:59:30.499Z,4.50
2023-01-30T01:01:58.489Z,4.50
2023-01-30T01:04:26.641Z,4.50
2023-01-30T01:06:54.647Z,4.40
2023-01-30T01:09:22.584Z,4.40
2023-01-30T01:11:50.538Z,4.40
2023-01-30T01:14:18.465Z,4.40
2023-01-30T01:16:46.721Z,4.30
2023-01-30T01:19:14.727Z,4.40
2023-01-30T01:21:42.807Z,4.40
2023-01-30T01:24:12.767Z,4.40
2023-01-30T01:26:42.365Z,4.50
2023-01-30T01:29:13.663Z,4.50
2023-01-30T01:31:42.411Z,4.50
2023-01-30T01:34:11.042Z,4.50
2023-01-30T01:36:54.951Z,4.50
2023-01-30T01:39:23.194Z,4.50
2023-01-30T01:41:51.601Z,4.50
2023-01-30T01:44:19.675Z,4.40
2023-01-30T01:46:52.591Z,4.40
2023-01-30T01:49:23.237Z,4.40
2023-01-30T01:51:51.408Z,4.30
2023-01-30T01:54:42.181Z,4.30
2023-01-30T01:57:18.603Z,4.40
2023-01-30T01:59:52.294Z,4.40
2023-01-30T02:02:20.714Z,4.40
2023-01-30T02:05:05.516Z,4.50
2023-01-30T02:07:46.282Z,4.50
2023-01-30T02:10:19.134Z,4.50
2023-01-30T02:12:48.437Z,4.50
2023-01-30T02:15:17.627Z,4.40
2023-01-30T02:17:46.170Z,4.40
2023-01-30T02:20:23.214Z,4.40
2023-01-30T02:23:00.035Z,4.30
2023-01-30T02:25:43.320Z,4.30
2023-01-30T02:28:14.299Z,4.30
2023-01-30T02:31:00.984Z,4.30
2023-01-30T02:34:08.703Z,4.30
2023-01-30T02:36:55.022Z,4.30
2023-01-30T02:39:28.863Z,4.30
2023-01-30T02:42:09.109Z,4.30
2023-01-30T02:45:02.419Z,4.40
2023-01-30T02:47:36.675Z,4.40
2023-01-30T02:50:08.798Z,4.40
2023-01-30T02:52:37.804Z,4.40
2023-01-30T02:55:10.135Z,4.40
2023-01-30T02:57:39.183Z,4.40
2023-01-30T03:00:07.729Z,4.30
2023-01-30T03:02:52.461Z,4.30
2023-01-30T03:05:23.408Z,4.30
2023-01-30T03:07:57.505Z,4.20
2023-01-30T03:10:54.929Z,4.30
2023-01-30T03:13:41.878Z,4.30
2023-01-30T03:16:13.987Z,4.30
2023-01-30T03:18:43.010Z,4.30
2023-01-30T03:21:11.493Z,4.30
2023-01-30T03:23:39.792Z,4.30
2023-01-30T03:26:10.250Z,4.20
2023-01-30T03:28:38.244Z,4.20
2023-01-30T03:31:06.332Z,4.20
2023-01-30T03:33:34.303Z,4.10
2023-01-30T03:36:02.281Z,4.20
2023-01-30T03:38:30.350Z,4.20
2023-01-30T03:40:58.513Z,4.20
2023-01-30T03:43:26.414Z,4.30
2023-01-30T03:45:54.518Z,4.30
2023-01-30T03:48:22.542Z,4.30
2023-01-30T03:50:50.488Z,4.30
2023-01-30T03:53:18.739Z,4.30
2023-01-30T03:55:46.665Z,4.30
2023-01-30T03:58:14.873Z,4.20
2023-01-30T04:00:42.900Z,4.20
2023-01-30T04:03:11.030Z,4.20
2023-01-30T04:05:39.191Z,4.10
2023-01-30T04:08:09.372Z,4.10
2023-01-30T04:10:38.366Z,4.10
2023-01-30T04:13:06.611Z,4.10
2023-01-30T04:15:34.977Z,4.20
2023-01-30T04:18:35.130Z,4.20
2023-01-30T04:21:10.534Z,4.30
2023-01-30T04:23:40.632Z,4.30
2023-01-30T04:26:09.480Z,4.30
2023-01-30T04:28:40.344Z,4.30
2023-01-30T04:31:08.736Z,4.30
2023-01-30T04:34:00.232Z,4.40
2023-01-30T04:36:29.763Z,4.40
2023-01-30T04:38:58.610Z,4.30
2023-01-30T04:41:27.853Z,4.30
2023-01-30T04:44:00.615Z,4.20
2023-01-30T04:46:42.232Z,4.20
2023-01-30T04:49:13.198Z,4.20
2023-01-30T04:51:41.413Z,4.20
2023-01-30T04:54:09.426Z,4.20
2023-01-30T04:56:37.383Z,4.20
2023-01-30T04:59:06.949Z,4.30
2023-01-30T05:01:40.722Z,4.30
2023-01-30T05:04:09.227Z,4.30
2023-01-30T05:06:37.348Z,4.30
2023-01-30T05:09:06.001Z,4.30
2023-01-30T05:11:34.970Z,4.30
2023-01-30T05:14:02.803Z,4.40
2023-01-30T05:16:30.738Z,4.30
2023-01-30T05:18:58.714Z,4.30
2023-01-30T05:21:28.226Z,4.20
2023-01-30T05:23:57.041Z,4.20
2023-01-30T05:26:25.232Z,4.20
2023-01-30T05:28:53.696Z,4.10
2023-01-30T05:31:21.796Z,4.10
2023-01-30T05:33:50.700Z,4.20
2023-01-30T05:36:19.262Z,4.20
2023-01-30T05:38:47.175Z,4.20
2023-01-30T05:41:15.756Z,4.30
2023-01-30T05:43:43.928Z,4.30
2023-01-30T05:46:13.424Z,4.30
2023-01-30T05:48:41.490Z,4.30
2023-01-30T05:51:16.496Z,4.30
2023-01-30T05:53:44.461Z,4.20
2023-01-30T05:56:12.407Z,4.20
2023-01-30T05:58:40.304Z,4.20
2023-01-30T06:01:12.592Z,4.20
2023-01-30T06:03:40.510Z,4.10
2023-01-30T06:06:08.441Z,4.20
2023-01-30T06:08:36.294Z,4.20
2023-01-30T06:11:05.920Z,4.20
2023-01-30T06:13:34.312Z,4.30
2023-01-30T06:16:02.504Z,4.30
2023-01-30T06:18:30.703Z,4.30
2023-01-30T06:20:58.575Z,4.40
2023-01-30T06:23:26.880Z,4.30
2023-01-30T06:25:55.027Z,4.30
2023-01-30T06:28:23.744Z,4.30
2023-01-30T06:30:51.966Z,4.20
2023-01-30T06:33:19.943Z,4.20
2023-01-30T06:35:51.864Z,4.20
2023-01-30T06:38:21.029Z,4.20
2023-01-30T06:40:49.605Z,4.20
2023-01-30T06:43:17.572Z,4.30
2023-01-30T06:45:45.589Z,4.30
2023-01-30T06:48:13.621Z,4.30
2023-01-30T06:50:41.442Z,4.40
2023-01-30T06:53:09.658Z,4.40
2023-01-30T06:55:38.503Z,4.40
2023-01-30T06:58:06.415Z,4.50
2023-01-30T07:00:34.938Z,4.50
2023-01-30T07:03:02.856Z,4.50
2023-01-30T07:05:30.760Z,4.40
2023-01-30T07:07:58.835Z,4.40
2023-01-30T07:10:26.819Z,4.40
2023-01-30T07:12:54.751Z,4.40
2023-01-30T07:15:22.665Z,4.50
2023-01-30T07:17:50.619Z,4.40
2023-01-30T07:20:18.570Z,4.50
2023-01-30T07:22:53.135Z,4.50
2023-01-30T07:25:21.572Z,4.50
2023-01-30T07:27:56.614Z,4.50
2023-01-30T07:30:25.037Z,4.50
2023-01-30T07:32:54.940Z,4.60
2023-01-30T07:35:23.496Z,4.70
2023-01-30T07:37:52.155Z,4.80
2023-01-30T07:40:20.962Z,4.70
2023-01-30T07:42:58.405Z,4.70
2023-01-30T07:45:28.174Z,4.70
2023-01-30T07:47:56.207Z,4.70
2023-01-30T07:50:24.057Z,4.70
2023-01-30T07:52:52.297Z,4.70
2023-01-30T07:55:20.526Z,4.70
2023-01-30T07:57:48.584Z,4.70
2023-01-30T08:00:17.344Z,4.70
2023-01-30T08:02:45.555Z,4.70
2023-01-30T08:05:13.610Z,4.80
2023-01-30T08:07:41.528Z,4.80
2023-01-30T08:10:11.991Z,4.80
2023-01-30T08:12:40.875Z,4.80
2023-01-30T08:15:09.581Z,4.80
2023-01-30T08:17:37.646Z,4.80
2023-01-30T08:20:06.152Z,4.80
2023-01-30T08:22:34.011Z,4.80
2023-01-30T08:25:01.998Z,4.80
2023-01-30T08:27:30.189Z,4.90
2023-01-30T08:29:58.139Z,4.90
2023-01-30T08:32:26.031Z,4.90
2023-01-30T08:34:53.874Z,5.00
2023-01-30T08:37:21.847Z,5.00
2023-01-30T08:39:50.036Z,5.10
2023-01-30T08:42:17.874Z,5.10
2023-01-30T08:44:45.800Z,5.20
2023-01-30T08:47:13.821Z,5.20
2023-01-30T08:49:41.748Z,5.30
2023-01-30T08:52:10.200Z,5.30
2023-01-30T08:54:38.111Z,5.40
2023-01-30T08:57:06.111Z,5.60
2023-01-30T08:59:34.221Z,5.80
2023-01-30T09:02:02.172Z,6.00
2023-01-30T09:04:31.618Z,6.20
2023-01-30T09:07:01.199Z,6.40
2023-01-30T09:09:29.473Z,6.60
2023-01-30T09:11:57.328Z,6.70
2023-01-30T09:14:25.574Z,6.80
2023-01-30T09:16:56.530Z,6.90
2023-01-30T09:19:28.786Z,6.90
2023-01-30T09:21:58.910Z,6.90
2023-01-30T09:24:28.744Z,7.00
2023-01-30T09:26:59.221Z,7.10
2023-01-30T09:29:27.822Z,7.10
2023-01-30T09:31:59.414Z,7.10
2023-01-30T09:34:29.101Z,7.20
2023-01-30T09:37:01.232Z,7.20
2023-01-30T09:39:29.803Z,7.30
2023-01-30T09:42:25.231Z,7.40
2023-01-30T09:45:11.889Z,7.50
2023-01-30T09:47:42.859Z,7.60
2023-01-30T09:50:20.828Z,7.60
2023-01-30T09:53:03.239Z,7.70
2023-01-30T09:55:32.929Z,7.70
2023-01-30T09:58:01.308Z,7.70
2023-01-30T10:00:34.408Z,7.70
2023-01-30T10:03:05.315Z,7.70
2023-01-30T10:05:41.034Z,7.70
2023-01-30T10:08:24.244Z,7.70
2023-01-30T10:11:08.817Z,7.70
2023-01-30T10:13:52.686Z,7.80
2023-01-30T10:16:32.944Z,7.80
2023-01-30T10:19:09.776Z,7.80
2023-01-30T10:21:37.963Z,7.90
2023-01-30T10:24:24.746Z,7.90
2023-01-30T10:26:53.285Z,8.00
2023-01-30T10:29:25.383Z,8.10
2023-01-30T10:31:59.146Z,8.20
2023-01-30T10:34:30.240Z,8.30
2023-01-30T10:37:01.515Z,8.30
2023-01-30T10:39:29.589Z,8.40
2023-01-30T10:42:02.619Z,8.40
2023-01-30T10:44:33.410Z,8.50
2023-01-30T10:47:07.223Z,8.60
2023-01-30T10:49:38.177Z,8.60
2023-01-30T10:52:24.758Z,8.60
2023-01-30T10:55:01.606Z,8.60
2023-01-30T10:57:50.267Z,8.60
2023-01-30T11:00:34.176Z,8.60
2023-01-30T11:03:05.300Z,8.60
2023-01-30T11:05:42.883Z,8.60
2023-01-30T11:08:30.982Z,8.60
2023-01-30T11:10:59.036Z,8.70
2023-01-30T11:13:33.822Z,8.70
2023-01-30T11:16:05.996Z,8.60
2023-01-30T11:19:17.716Z,8.60
2023-01-30T11:21:44.752Z,8.60
2023-01-30T11:24:17.574Z,8.50
2023-01-30T11:26:48.121Z,8.40
2023-01-30T11:29:24.514Z,8.40
2023-01-30T11:31:53.004Z,8.30
2023-01-30T11:34:22.273Z,8.20
2023-01-30T11:36:50.768Z,8.10
2023-01-30T11:39:23.591Z,8.10
2023-01-30T11:41:54.643Z,8.10
2023-01-30T11:44:28.730Z,8.10
2023-01-30T11:47:16.828Z,8.20
2023-01-30T11:49:49.751Z,8.20
2023-01-30T11:52:38.777Z,8.20
2023-01-30T11:55:10.539Z,8.30
2023-01-30T11:57:46.810Z,8.30
2023-01-30T12:00:19.080Z,8.40
2023-01-30T12:02:48.524Z,8.40
2023-01-30T12:05:25.892Z,8.40
2023-01-30T12:07:53.852Z,8.40
2023-01-30T12:10:25.419Z,8.30
2023-01-30T12:12:54.383Z,8.30
2023-01-30T12:15:27.202Z,8.20
2023-01-30T12:18:07.662Z,8.20
2023-01-30T12:20:46.546Z,8.20
2023-01-30T12:23:24.236Z,8.10
2023-01-30T12:25:55.365Z,8.10
2023-01-30T12:28:33.142Z,8.00
2023-01-30T12:31:22.000Z,8.00
2023-01-30T12:33:50.162Z,8.00
2023-01-30T12:36:36.365Z,7.90
2023-01-30T12:39:22.951Z,7.90
2023-01-30T12:42:00.023Z,7.90
2023-01-30T12:44:47.073Z,7.90
2023-01-30T12:47:15.275Z,7.80
2023-01-30T12:49:43.111Z,7.80
2023-01-30T12:52:22.453Z,7.70
2023-01-30T12:55:08.998Z,7.70
2023-01-30T12:57:47.838Z,7.60
2023-01-30T13:00:38.214Z,7.50
2023-01-30T13:03:24.525Z,7.50
2023-01-30T13:06:03.349Z,7.40
2023-01-30T13:08:54.545Z,7.40
2023-01-30T13:11:41.110Z,7.40
2023-01-30T13:14:11.971Z,7.30
2023-01-30T13:16:42.969Z,7.30
2023-01-30T13:19:10.926Z,7.40
2023-01-30T13:21:51.607Z,7.30
2023-01-30T13:24:36.838Z,7.20
2023-01-30T13:27:09.797Z,7.20
2023-01-30T13:29:39.245Z,7.20
2023-01-30T13:32:12.898Z,7.10
2023-01-30T13:34:45.953Z,7.00
2023-01-30T13:37:15.149Z,7.00
2023-01-30T13:39:43.070Z,7.00
2023-01-30T13:42:21.735Z,6.90
2023-01-30T13:44:51.980Z,6.90
2023-01-30T13:47:24.368Z,6.90
2023-01-30T13:50:12.429Z,6.90
2023-01-30T13:52:45.209Z,6.80
2023-01-30T13:55:28.536Z,6.80
2023-01-30T13:58:02.383Z,6.70
2023-01-30T14:00:31.746Z,6.70
2023-01-30T14:03:09.262Z,6.70
2023-01-30T14:05:52.618Z,6.70
2023-01-30T14:08:22.509Z,6.60
2023-01-30T14:10:50.597Z,6.50
2023-01-30T14:13:19.176Z,6.50
2023-01-30T14:16:16.700Z,6.50
2023-01-30T14:18:46.090Z,6.40
2023-01-30T14:21:13.978Z,6.40
2023-01-30T14:23:43.250Z,6.40
2023-01-30T14:26:11.181Z,6.40
2023-01-30T14:28:44.558Z,6.30
2023-01-30T14:31:12.970Z,6.30
2023-01-30T14:33:50.946Z,6.30
2023-01-30T14:36:22.243Z,6.30
2023-01-30T14:38:57.265Z,6.20
2023-01-30T14:41:26.919Z,6.20
2023-01-30T14:43:54.867Z,6.10
2023-01-30T14:46:22.890Z,6.10
2023-01-30T14:49:05.892Z,6.00
2023-01-30T14:51:37.465Z,6.00
2023-01-30T14:54:14.994Z,6.00
2023-01-30T14:56:45.374Z,6.10
2023-01-30T14:59:16.454Z,6.10
2023-01-30T15:02:03.484Z,6.20
2023-01-30T15:04:33.405Z,6.20
2023-01-30T15:07:05.205Z,6.20
2023-01-30T15:09:33.732Z,6.20
2023-01-30T15:12:07.956Z,6.20
2023-01-30T15:14:58.984Z,6.20
2023-01-30T15:17:52.740Z,6.20
2023-01-30T15:20:32.219Z,6.10
2023-01-30T15:23:04.602Z,6.00
2023-01-30T15:25:51.409Z,6.00
2023-01-30T15:28:39.246Z,5.90
2023-01-30T15:31:16.589Z,5.80
2023-01-30T15:33:45.776Z,5.80
2023-01-30T15:36:21.294Z,5.70
2023-01-30T15:39:01.151Z,5.70
2023-01-30T15:41:47.322Z,5.70
2023-01-30T15:44:24.312Z,5.60
2023-01-30T15:47:07.703Z,5.60
2023-01-30T15:49:41.874Z,5.50
2023-01-30T15:52:14.335Z,5.50
2023-01-30T15:54:49.824Z,5.50
2023-01-30T15:57:29.786Z,5.50
2023-01-30T15:59:58.473Z,5.50
2023-01-30T16:02:29.346Z,5.50
2023-01-30T16:05:25.229Z,5.50
2023-01-30T16:07:54.649Z,5.50
2023-01-30T16:10:27.107Z,5.50
2023-01-30T16:12:56.619Z,5.40
2023-01-30T16:15:33.550Z,5.40
2023-01-30T16:18:22.062Z,5.30
2023-01-30T16:21:01.628Z,5.20
2023-01-30T16:23:36.309Z,5.10
2023-01-30T16:26:05.213Z,5.00
2023-01-30T16:28:33.445Z,4.90
2023-01-30T16:31:08.969Z,4.90
2023-01-30T16:33:37.692Z,4.80
2023-01-30T16:36:07.045Z,4.70
2023-01-30T16:38:35.012Z,4.70
2023-01-30T16:41:03.892Z,4.70
2023-01-30T16:43:33.064Z,4.60
2023-01-30T16:46:20.316Z,4.60
2023-01-30T16:48:48.530Z,4.60
2023-01-30T16:51:21.850Z,4.60
2023-01-30T16:53:56.922Z,4.50
2023-01-30T16:56:25.211Z,4.50
2023-01-30T16:58:54.723Z,4.50
2023-01-30T17:01:24.514Z,4.50
2023-01-30T17:04:03.417Z,4.50
2023-01-30T17:06:36.942Z,4.50
2023-01-30T17:09:05.853Z,4.40
2023-01-30T17:11:33.720Z,4.40
2023-01-30T17:14:16.603Z,4.30
2023-01-30T17:16:46.479Z,4.30
2023-01-30T17:19:15.318Z,4.30
2023-01-30T17:21:49.484Z,4.30
2023-01-30T17:24:18.591Z,4.30
2023-01-30T17:26:48.650Z,4.30
2023-01-30T17:29:28.812Z,4.30
2023-01-30T17:32:02.172Z,4.30
2023-01-30T17:34:30.209Z,4.30
2023-01-30T17:36:58.261Z,4.30
2023-01-30T17:39:27.102Z,4.40
2023-01-30T17:41:55.129Z,4.30
2023-01-30T17:44:23.206Z,4.30
2023-01-30T17:46:51.305Z,4.20
2023-01-30T17:49:20.647Z,4.20
2023-01-30T17:51:49.264Z,4.10
2023-01-30T17:54:17.574Z,4.10
2023-01-30T17:56:46.970Z,4.10
2023-01-30T17:59:18.969Z,4.10
2023-01-30T18:01:48.139Z,4.00
2023-01-30T18:04:16.323Z,4.00
2023-01-30T18:06:45.834Z,4.00
2023-01-30T18:09:18.843Z,4.00
2023-01-30T18:11:47.720Z,4.00
2023-01-30T18:14:16.164Z,4.00
2023-01-30T18:16:44.596Z,4.00
2023-01-30T18:19:13.914Z,4.00
2023-01-30T18:21:45.404Z,3.90
2023-01-30T18:24:13.924Z,3.90
2023-01-30T18:26:42.155Z,3.90
2023-01-30T18:29:10.112Z,3.90
2023-01-30T18:31:38.985Z,3.90
2023-01-30T18:34:07.599Z,3.80
2023-01-30T18:36:36.004Z,3.80
2023-01-30T18:39:04.338Z,3.80
2023-01-30T18:41:32.504Z,3.80
2023-01-30T18:44:01.407Z,3.80
2023-01-30T18:46:30.034Z,3.80
2023-01-30T18:48:58.531Z,3.80
2023-01-30T18:51:27.910Z,3.70
2023-01-30T18:53:56.464Z,3.80
2023-01-30T18:56:25.797Z,3.70
2023-01-30T18:58:57.311Z,3.70
2023-01-30T19:01:26.715Z,3.60
2023-01-30T19:03:55.616Z,3.60
2023-01-30T19:06:23.652Z,3.60
2023-01-30T19:08:52.529Z,3.60
2023-01-30T19:11:40.045Z,3.60
2023-01-30T19:14:08.555Z,3.50
2023-01-30T19:16:37.088Z,3.50
2023-01-30T19:19:05.728Z,3.60
2023-01-30T19:21:33.920Z,3.50
2023-01-30T19:24:07.119Z,3.50
2023-01-30T19:26:35.728Z,3.50
2023-01-30T19:29:04.905Z,3.50
2023-01-30T19:31:33.028Z,3.50
2023-01-30T19:34:02.189Z,3.50
2023-01-30T19:36:32.316Z,3.50
2023-01-30T19:39:00.481Z,3.50
2023-01-30T19:41:29.592Z,3.60
2023-01-30T19:43:58.720Z,3.60
2023-01-30T19:46:29.193Z,3.60
2023-01-30T19:48:57.278Z,3.60
2023-01-30T19:51:26.579Z,3.60
2023-01-30T19:53:55.593Z,3.60
2023-01-30T19:56:25.301Z,3.70
2023-01-30T19:58:55.166Z,3.60
2023-01-30T20:01:24.117Z,3.60
2023-01-30T20:03:52.045Z,3.60
2023-01-30T20:06:24.642Z,3.60
2023-01-30T20:08:58.525Z,3.60
2023-01-30T20:11:26.660Z,3.60
2023-01-30T20:13:54.851Z,3.60
2023-01-30T20:16:25.590Z,3.60
2023-01-30T20:18:57.593Z,3.60
2023-01-30T20:21:25.933Z,3.60
2023-01-30T20:23:54.058Z,3.60
2023-01-30T20:26:23.334Z,3.60
2023-01-30T20:28:51.219Z,3.60
2023-01-30T20:31:20.822Z,3.60
2023-01-30T20:33:49.454Z,3.60
2023-01-30T20:36:22.392Z,3.60
2023-01-30T20:38:50.724Z,3.60
2023-01-30T20:41:19.943Z,3.60
2023-01-30T20:43:49.793Z,3.60
2023-01-30T20:46:25.123Z,3.60
2023-01-30T20:48:54.861Z,3.60
2023-01-30T20:51:24.659Z,3.60
2023-01-30T20:53:56.665Z,3.60
2023-01-30T20:56:25.149Z,3.60
2023-01-30T20:58:53.278Z,3.60
2023-01-30T21:01:22.653Z,3.60
2023-01-30T21:03:52.637Z,3.60
2023-01-30T21:06:42.601Z,3.60
2023-01-30T21:09:12.100Z,3.60
2023-01-30T21:11:40.420Z,3.60
2023-01-30T21:14:08.515Z,3.60
2023-01-30T21:16:37.266Z,3.60
2023-01-30T21:19:06.506Z,3.60
2023-01-30T21:21:39.554Z,3.60
2023-01-30T21:24:08.834Z,3.60
2023-01-30T21:26:38.616Z,3.60
2023-01-30T21:29:08.788Z,3.60
2023-01-30T21:31:37.599Z,3.60
2023-01-30T21:34:06.050Z,3.60
2023-01-30T21:36:34.279Z,3.60
2023-01-30T21:39:20.700Z,3.60
2023-01-30T21:41:51.480Z,3.60
2023-01-30T21:44:20.299Z,3.60
2023-01-30T21:46:48.576Z,3.60
2023-01-30T21:49:17.360Z,3.60
2023-01-30T21:51:46.148Z,3.60
2023-01-30T21:54:14.387Z,3.60
2023-01-30T21:56:42.603Z,3.60
2023-01-30T21:59:10.802Z,3.60
2023-01-30T22:01:39.370Z,3.60
2023-01-30T22:04:09.409Z,3.60
2023-01-30T22:06:37.913Z,3.60
2023-01-30T22:09:06.809Z,3.60
2023-01-30T22:11:35.523Z,3.70
2023-01-30T22:14:03.461Z,3.70
2023-01-30T22:16:33.757Z,3.70
2023-01-30T22:19:02.890Z,3.70
2023-01-30T22:21:33.011Z,3.70
2023-01-30T22:24:01.981Z,3.70
2023-01-30T22:26:30.227Z,3.70
2023-01-30T22:28:59.531Z,3.60
2023-01-30T22:31:28.793Z,3.60
2023-01-30T22:33:57.161Z,3.60
2023-01-30T22:36:25.996Z,3.70
2023-01-30T22:38:54.260Z,3.70
2023-01-30T22:41:23.401Z,3.70
2023-01-30T22:43:53.737Z,3.70
2023-01-30T22:46:22.774Z,3.80
2023-01-30T22:48:50.662Z,3.80
2023-01-30T22:51:22.573Z,3.80
2023-01-30T22:53:51.591Z,3.80
2023-01-30T22:56:20.696Z,3.80
2023-01-30T22:58:49.279Z,3.80
2023-01-30T23:01:18.806Z,3.70
2023-01-30T23:03:47.745Z,3.70
2023-01-30T23:06:17.042Z,3.70
2023-01-30T23:08:46.914Z,3.70
2023-01-30T23:11:19.207Z,3.70
2023-01-30T23:13:48.420Z,3.80
2023-01-30T23:16:17.194Z,3.80
2023-01-30T23:18:57.126Z,3.80
2023-01-30T23:21:24.951Z,3.70
2023-01-30T23:23:57.047Z,3.70
2023-01-30T23:26:26.225Z,3.70
2023-01-30T23:28:54.050Z,3.70
2023-01-30T23:31:23.622Z,3.80
2023-01-30T23:33:59.568Z,3.80
2023-01-30T23:36:28.158Z,3.80
2023-01-30T23:38:56.834Z,3.80
2023-01-30T23:41:29.767Z,3.80
2023-01-30T23:43:58.319Z,3.80
2023-01-30T23:46:27.469Z,3.80
2023-01-30T23:48:56.796Z,3.70
2023-01-30T23:51:25.975Z,3.70
2023-01-30T23:53:54.362Z,3.70
2023-01-30T23:56:23.598Z,3.70
2023-01-30T23:58:51.589Z,3.80
